EGPH/EDI METAR and TAF weather

Enter ICAO airport designator
Station Type Date Time Source
EGPH METAR 2019/02/20 23:20 UTC NOAA

EGPH 202320Z 23009KT 9999 SCT018 BKN049 10/09 Q1011


Station Type Date Time Source
EGPH Decoded METAR 2019/02/20 23:20 UTC NOAA

Edinburgh Airport, United Kingdom (EGPH) 55-57N 003-21W 0M
Feb 20, 2019 - 06:20 PM EST / 2019.02.20 2320 UTC
Wind: from the SW (230 degrees) at 10 MPH (9 KT):0
Visibility: greater than 7 mile(s):0
Sky conditions: mostly cloudy
Temperature: 50 F (10 C)
Dew Point: 48 F (9 C)
Relative Humidity: 93%
Pressure (altimeter): 29.85 in. Hg (1011 hPa)
ob: EGPH 202320Z 23009KT 9999 SCT018 BKN049 10/09 Q1011
cycle: 23

Station Type Date Time Source
EGPH TAF 2019/02/20 20:26 UTC NOAA

TAF
AMD EGPH 202022Z 2020/2118 22014KT 9999 FEW012 BKN020 PROB40
TEMPO 2020/2022 4000 RADZ BKN012
TEMPO 2022/2112 BKN012 PROB40
TEMPO 2103/2109 4000 RADZ BKN008


Example: see airport list